Time;durP1;ratioP1;P1;durP2;ratioP2;P2;SDS_P1;SDS_P2;PMS_P1;PMS_P2;Temp;Humidity;BMP_temperature;BMP_pressure;BME280_temperature;BME280_humidity;BME280_pressure;Samples;Min_cycle;Max_cycle;Signal;HPM_P1;HPM_P2
2022/08/15 00:02:57;;;;;;;8.17;7.27;;;;;;;16.02;86.84;96770.44;7588178;23;20658;-69
2022/08/15 00:06:10;;;;;;;8.00;7.20;;;;;;;16.01;87.14;96777.59;7613619;23;20207;-70
2022/08/15 00:09:32;;;;;;;8.33;7.30;;;;;;;15.99;87.16;96779.59;7593530;23;20530;-70
2022/08/15 00:12:57;;;;;;;7.33;6.73;;;;;;;15.96;87.37;96777.31;7588308;23;20217;-70
2022/08/15 00:16:00;;;;;;;8.17;7.37;;;;;;;15.96;87.31;96766.69;7613200;23;20225;-69
2022/08/15 00:19:07;;;;;;;8.50;7.63;;;;;;;15.94;87.10;96771.34;7613198;23;20225;-70
2022/08/15 00:22:10;;;;;;;8.77;7.70;;;;;;;15.92;87.24;96772.53;7614137;23;20212;-70
2022/08/15 00:25:19;;;;;;;8.47;7.33;;;;;;;15.88;87.74;96772.03;7589059;23;20220;-70
2022/08/15 00:28:29;;;;;;;8.20;7.50;;;;;;;15.83;87.51;96769.09;7613887;23;20218;-71
2022/08/15 00:31:38;;;;;;;8.77;7.90;;;;;;;15.77;87.99;96773.28;7590265;23;20271;-70
2022/08/15 00:34:43;;;;;;;8.33;7.53;;;;;;;15.79;88.02;96775.78;7588652;23;20209;-70
2022/08/15 00:37:46;;;;;;;7.87;7.17;;;;;;;15.81;88.13;96768.44;7614425;23;20216;-70
2022/08/15 00:44:41;;;;;;;8.07;7.27;;;;;;;15.75;88.18;96774.50;7615943;23;20222;-70
2022/08/15 00:51:34;;;;;;;8.07;7.27;;;;;;;15.73;87.97;96769.34;7590541;23;20290;-70
2022/08/15 00:54:42;;;;;;;8.77;7.33;;;;;;;15.75;88.25;96771.84;7617044;23;20224;-70
2022/08/15 00:58:00;;;;;;;7.73;6.87;;;;;;;15.73;88.23;96773.84;7590598;23;20216;-69
2022/08/15 01:01:51;;;;;;;8.37;7.60;;;;;;;15.76;88.21;96768.16;7591086;23;20223;-69
2022/08/15 01:05:11;;;;;;;8.40;7.53;;;;;;;15.73;88.58;96763.19;7590664;23;20298;-70
2022/08/15 01:08:22;;;;;;;9.13;8.33;;;;;;;15.70;88.84;96768.88;7568708;23;20217;-70
2022/08/15 01:11:57;;;;;;;8.70;7.87;;;;;;;15.68;89.19;96766.38;7615924;23;20209;-69
2022/08/15 01:15:04;;;;;;;8.03;7.33;;;;;;;15.70;89.22;96761.72;7590176;23;20534;-70
2022/08/15 01:18:09;;;;;;;8.67;7.83;;;;;;;15.70;89.43;96761.72;7590912;23;20211;-70
2022/08/15 01:21:47;;;;;;;9.20;8.20;;;;;;;15.66;89.42;96767.56;7566268;23;20675;-70
2022/08/15 01:25:00;;;;;;;9.07;8.27;;;;;;;15.59;89.75;96758.63;7543083;23;20221;-70
2022/08/15 01:28:32;;;;;;;8.20;7.50;;;;;;;15.56;89.71;96764.31;7551260;23;20719;-70
2022/08/15 01:31:37;;;;;;;9.63;8.63;;;;;;;15.54;89.64;96753.00;7542741;23;20217;-71
2022/08/15 01:34:51;;;;;;;9.10;8.30;;;;;;;15.50;89.84;96758.66;7567006;23;20741;-70
2022/08/15 01:37:56;;;;;;;8.93;8.03;;;;;;;15.51;89.84;96756.81;7543230;23;20214;-70
2022/08/15 01:41:23;;;;;;;8.57;7.77;;;;;;;15.52;89.87;96763.81;7540577;23;20210;-70
2022/08/15 01:44:36;;;;;;;9.43;7.73;;;;;;;15.52;89.82;96759.31;7541682;23;20694;-70
2022/08/15 01:48:10;;;;;;;12.67;9.80;;;;;;;15.51;89.84;96759.50;7540736;23;20221;-71
2022/08/15 01:51:22;;;;;;;8.53;7.63;;;;;;;15.45;89.93;96754.88;7544911;23;20210;-70
2022/08/15 01:54:28;;;;;;;8.33;7.53;;;;;;;15.48;89.74;96762.50;7541157;23;20217;-70
2022/08/15 01:57:50;;;;;;;8.20;7.40;;;;;;;15.50;89.55;96752.50;7543698;23;20654;-71
2022/08/15 02:01:00;;;;;;;8.10;7.30;;;;;;;15.51;89.55;96743.53;7542345;23;20666;-70
2022/08/15 02:04:05;;;;;;;11.50;8.30;;;;;;;15.45;89.71;96753.06;7542116;23;20272;-70
2022/08/15 02:07:18;;;;;;;7.87;7.17;;;;;;;15.45;89.67;96758.38;7543278;23;20249;-71
2022/08/15 02:10:25;;;;;;;8.70;7.87;;;;;;;15.45;89.48;96763.69;7543345;23;20210;-71
2022/08/15 02:13:29;;;;;;;7.90;7.10;;;;;;;15.42;89.48;96761.38;7541251;23;20682;-71
2022/08/15 02:16:36;;;;;;;8.80;7.90;;;;;;;15.37;89.46;96763.72;7541944;23;20213;-71
2022/08/15 02:19:40;;;;;;;8.13;7.33;;;;;;;15.38;89.49;96767.19;7562786;23;20219;-70
2022/08/15 02:22:54;;;;;;;8.47;7.33;;;;;;;15.41;89.34;96753.56;7591000;23;20665;-70
2022/08/15 02:25:58;;;;;;;8.27;7.47;;;;;;;15.37;89.62;96760.25;7564263;23;20559;-69
2022/08/15 02:29:11;;;;;;;8.37;7.20;;;;;;;15.32;89.43;96751.97;7591157;23;20767;-69
2022/08/15 02:32:17;;;;;;;8.80;7.97;;;;;;;15.33;89.70;96753.63;7589531;23;20312;-69
2022/08/15 02:35:20;;;;;;;9.20;8.40;;;;;;;15.37;89.57;96746.97;7589869;23;20216;-70
2022/08/15 02:38:27;;;;;;;8.10;7.30;;;;;;;15.37;89.43;96752.28;7589727;23;20206;-70
2022/08/15 02:41:51;;;;;;;9.23;7.87;;;;;;;15.31;89.20;96753.78;7615316;23;20299;-70
2022/08/15 02:44:56;;;;;;;8.67;7.83;;;;;;;15.29;89.30;96755.78;7566383;23;20553;-70
2022/08/15 02:48:00;;;;;;;8.37;7.57;;;;;;;15.29;89.52;96755.78;7589641;23;20283;-71
2022/08/15 02:51:22;;;;;;;8.20;7.50;;;;;;;15.31;89.32;96759.13;7614690;23;20205;-70
2022/08/15 02:54:27;;;;;;;8.53;7.73;;;;;;;15.34;88.95;96755.28;7588763;23;20641;-70
2022/08/15 02:57:50;;;;;;;8.03;7.33;;;;;;;15.33;89.45;96759.78;7589370;23;20212;-70
2022/08/15 03:01:11;;;;;;;9.00;8.17;;;;;;;15.36;89.34;96761.25;7567753;23;20212;-70
2022/08/15 03:04:22;;;;;;;7.47;6.77;;;;;;;15.34;89.17;96761.44;7589095;23;20208;-70
2022/08/15 03:07:33;;;;;;;7.40;6.70;;;;;;;15.26;88.97;96753.50;7590010;23;20803;-71
2022/08/15 03:10:40;;;;;;;7.90;6.97;;;;;;;15.19;88.84;96755.19;7587175;23;20212;-70
2022/08/15 03:13:50;;;;;;;8.27;7.47;;;;;;;15.10;89.02;96745.59;7588859;23;20254;-70
2022/08/15 03:16:54;;;;;;;8.40;7.60;;;;;;;15.03;89.06;96745.47;7589453;23;20326;-71
2022/08/15 03:19:56;;;;;;;8.27;7.53;;;;;;;15.03;89.22;96750.78;7614080;23;20672;-70
2022/08/15 03:23:07;;;;;;;7.97;7.17;;;;;;;15.00;88.95;96751.13;7565733;23;20216;-71
2022/08/15 03:26:21;;;;;;;8.33;7.50;;;;;;;14.96;88.96;96751.66;7587516;23;20263;-71
2022/08/15 03:29:36;;;;;;;7.30;6.70;;;;;;;14.95;89.03;96745.53;7589357;23;20209;-70
2022/08/15 03:32:58;;;;;;;7.13;6.43;;;;;;;14.92;88.90;96748.53;7589410;23;20220;-71
2022/08/15 03:36:06;;;;;;;7.33;6.63;;;;;;;14.89;89.10;96750.69;7588139;23;20201;-70
2022/08/15 03:39:15;;;;;;;8.43;6.83;;;;;;;14.84;88.94;96745.91;7588343;23;20346;-71
2022/08/15 03:42:18;;;;;;;8.07;7.37;;;;;;;14.82;89.13;96755.03;7588559;23;20191;-71
2022/08/15 03:45:26;;;;;;;7.27;6.67;;;;;;;14.85;89.13;96755.53;7588127;23;20240;-71
2022/08/15 03:48:43;;;;;;;8.13;7.37;;;;;;;14.82;89.13;96749.72;7565421;23;20324;-70
2022/08/15 03:52:05;;;;;;;7.80;7.00;;;;;;;14.79;88.97;96753.53;7588463;23;20220;-70
2022/08/15 03:55:10;;;;;;;9.70;8.13;;;;;;;14.76;89.11;96752.09;7588902;23;20213;-71
2022/08/15 03:58:21;;;;;;;7.37;6.67;;;;;;;14.73;89.00;96749.75;7588346;23;20220;-71
2022/08/15 04:01:49;;;;;;;9.07;7.93;;;;;;;14.73;88.74;96744.44;7567271;23;20335;-70
2022/08/15 04:04:58;;;;;;;8.47;7.57;;;;;;;14.71;89.14;96741.13;7588733;23;20215;-70
2022/08/15 04:08:07;;;;;;;8.57;7.70;;;;;;;14.70;89.05;96738.66;7589080;23;20209;-70
2022/08/15 04:11:30;;;;;;;8.13;7.33;;;;;;;14.68;89.00;96745.94;7612877;23;20213;-70
2022/08/15 04:14:42;;;;;;;8.27;7.50;;;;;;;14.74;89.30;96739.97;7587879;23;20239;-70
2022/08/15 04:17:48;;;;;;;8.47;7.57;;;;;;;14.84;88.98;96743.25;7587808;23;20281;-70
2022/08/15 04:21:02;;;;;;;8.70;7.90;;;;;;;14.93;88.79;96742.22;7588126;23;20223;-70
2022/08/15 04:24:05;;;;;;;8.63;7.73;;;;;;;14.94;88.70;96740.38;7589529;23;20200;-70
2022/08/15 04:27:27;;;;;;;9.20;8.23;;;;;;;14.90;89.05;96729.25;7615374;23;20215;-70
2022/08/15 04:30:37;;;;;;;9.37;8.23;;;;;;;14.89;88.93;96735.56;7616267;23;20237;-70
2022/08/15 04:33:44;;;;;;;8.37;7.33;;;;;;;14.93;88.92;96736.06;7591996;23;20216;-70
2022/08/15 04:37:07;;;;;;;9.33;7.70;;;;;;;14.97;88.86;96740.84;7591181;23;20649;-69
2022/08/15 04:40:15;;;;;;;8.30;7.50;;;;;;;14.97;88.86;96737.38;7591942;23;20212;-69
2022/08/15 04:43:41;;;;;;;8.63;7.83;;;;;;;14.98;89.00;96747.81;7590952;23;20215;-70
2022/08/15 04:46:51;;;;;;;8.60;7.70;;;;;;;15.00;88.95;96745.00;7590742;23;20236;-69
2022/08/15 04:49:55;;;;;;;7.83;7.03;;;;;;;15.03;88.83;96742.81;7615986;23;20212;-71
2022/08/15 04:53:03;;;;;;;8.77;7.97;;;;;;;15.09;88.80;96742.13;7589454;23;20672;-71
2022/08/15 04:56:07;;;;;;;8.60;7.80;;;;;;;15.10;88.67;96738.47;7590394;23;20335;-71
2022/08/15 04:59:29;;;;;;;8.30;7.60;;;;;;;15.12;88.69;96740.94;7589255;23;20268;-71
2022/08/15 05:03:06;;;;;;;8.60;7.70;;;;;;;15.20;88.49;96738.25;7591404;23;20290;-71
2022/08/15 05:06:12;;;;;;;7.87;7.13;;;;;;;15.41;88.52;96737.63;7588281;23;20197;-70
2022/08/15 05:09:37;;;;;;;8.30;7.53;;;;;;;15.66;88.16;96739.16;7590829;23;20217;-70
2022/08/15 05:13:15;;;;;;;8.30;7.50;;;;;;;16.13;85.98;96736.25;7589725;23;20213;-71
2022/08/15 05:16:20;;;;;;;8.50;7.73;;;;;;;16.11;85.52;96740.91;7614392;23;20216;-69
2022/08/15 05:19:36;;;;;;;8.57;7.60;;;;;;;16.00;85.74;96736.03;7615488;23;20216;-69
2022/08/15 05:23:07;;;;;;;8.30;7.60;;;;;;;15.91;85.81;96742.44;7615653;23;20232;-70
2022/08/15 05:26:19;;;;;;;11.07;10.07;;;;;;;15.83;86.44;96753.13;7590522;23;20209;-70
2022/08/15 05:29:42;;;;;;;10.50;9.60;;;;;;;16.33;84.72;96752.53;7613127;23;20439;-70
2022/08/15 05:32:44;;;;;;;10.40;9.40;;;;;;;16.09;85.87;96766.88;7614844;23;20219;-70
2022/08/15 05:35:57;;;;;;;9.73;8.90;;;;;;;16.04;86.17;96771.94;7588989;23;20212;-69
2022/08/15 05:39:26;;;;;;;10.00;8.93;;;;;;;16.06;86.08;96767.25;7590613;23;20208;-70
2022/08/15 05:43:05;;;;;;;8.80;8.00;;;;;;;16.08;86.04;96762.56;7614997;23;20217;-70
2022/08/15 05:46:22;;;;;;;8.80;8.00;;;;;;;16.08;86.11;96762.56;7590998;23;20215;-71
2022/08/15 05:49:39;;;;;;;8.40;7.63;;;;;;;16.12;86.20;96765.69;7590173;23;20309;-71
2022/08/15 05:53:31;;;;;;;8.43;7.63;;;;;;;16.12;86.29;96765.69;7590085;23;20208;-71
2022/08/15 05:57:03;;;;;;;8.03;7.23;;;;;;;16.23;86.15;96760.78;7591086;23;20216;-71
2022/08/15 06:00:12;;;;;;;7.63;6.93;;;;;;;16.40;85.77;96760.59;7589240;23;20208;-70
2022/08/15 06:03:27;;;;;;;7.60;6.90;;;;;;;16.54;85.37;96755.31;7568691;23;20181;-71
2022/08/15 06:06:47;;;;;;;8.43;7.63;;;;;;;16.96;84.82;96752.03;7615144;23;20213;-70
2022/08/15 06:09:59;;;;;;;7.47;6.77;;;;;;;17.63;82.10;96745.63;7590670;23;20703;-70
2022/08/15 06:13:11;;;;;;;7.93;7.17;;;;;;;18.25;79.01;96744.94;7590050;23;20297;-71
2022/08/15 06:16:25;;;;;;;7.67;6.97;;;;;;;18.73;76.76;96751.25;7589186;23;20269;-70
2022/08/15 06:19:51;;;;;;;7.17;6.57;;;;;;;19.03;76.02;96755.34;7587320;23;20217;-70
2022/08/15 06:23:05;;;;;;;7.20;6.50;;;;;;;19.21;74.62;96754.78;7588446;23;20261;-71
2022/08/15 06:26:24;;;;;;;7.53;6.83;;;;;;;19.08;75.28;96755.53;7588261;23;20212;-71
2022/08/15 06:29:52;;;;;;;8.13;7.33;;;;;;;19.38;74.33;96763.28;7614391;23;20213;-70
2022/08/15 06:33:35;;;;;;;7.23;6.57;;;;;;;19.43;73.96;96764.34;7590101;23;20219;-71
2022/08/15 06:37:25;;;;;;;7.67;7.00;;;;;;;19.48;74.21;96764.59;7589647;23;20232;-71
2022/08/15 06:40:52;;;;;;;8.60;6.80;;;;;;;19.47;74.16;96760.22;7589681;23;20291;-71
2022/08/15 06:43:57;;;;;;;7.43;6.73;;;;;;;19.46;74.42;96768.47;7588378;23;20212;-71
2022/08/15 06:47:07;;;;;;;7.20;6.60;;;;;;;19.69;74.03;96766.28;7587068;23;20209;-72
2022/08/15 06:50:17;;;;;;;7.00;6.40;;;;;;;19.70;74.20;96775.97;7595601;23;20216;-68
2022/08/15 06:53:35;;;;;;;7.47;6.77;;;;;;;19.73;74.79;96775.56;7587806;23;20209;-68
2022/08/15 06:57:13;;;;;;;6.93;6.33;;;;;;;19.80;75.60;96783.59;7614339;23;20295;-69
2022/08/15 07:00:29;;;;;;;7.17;6.47;;;;;;;19.85;75.33;96784.66;7614230;23;20209;-72
2022/08/15 07:04:13;;;;;;;7.20;6.60;;;;;;;20.19;74.47;96797.06;7590470;23;20209;-72
2022/08/15 07:07:31;;;;;;;7.00;6.40;;;;;;;20.59;73.29;96781.84;7588520;23;20213;-72
2022/08/15 07:10:52;;;;;;;8.10;6.50;;;;;;;20.94;71.96;96784.25;7588718;23;20205;-72
2022/08/15 07:14:18;;;;;;;7.27;6.67;;;;;;;21.19;71.27;96795.16;7567253;23;20664;-71
2022/08/15 07:17:45;;;;;;;7.33;6.63;;;;;;;21.52;70.17;96795.03;7571426;23;20282;-72
2022/08/15 07:21:17;;;;;;;11.30;10.17;;;;;;;21.92;68.52;96783.03;7574757;23;20216;-73
2022/08/15 07:24:20;;;;;;;9.47;8.47;;;;;;;22.19;67.02;96791.75;7552144;23;20208;-73
2022/08/15 07:27:41;;;;;;;8.33;7.53;;;;;;;22.64;65.40;96792.44;7575281;23;20206;-73
2022/08/15 07:31:21;;;;;;;8.20;7.47;;;;;;;23.03;63.51;96791.28;7579051;23;20216;-72
2022/08/15 07:34:29;;;;;;;8.00;7.30;;;;;;;23.45;62.56;96794.13;7578445;23;20275;-73
2022/08/15 07:37:37;;;;;;;7.23;6.60;;;;;;;23.86;61.44;96793.38;7551955;23;21363;-73
2022/08/15 07:40:43;;;;;;;7.40;6.80;;;;;;;24.28;59.86;96795.06;7576055;23;20213;-73
2022/08/15 07:44:19;;;;;;;6.93;6.33;;;;;;;24.77;58.42;96789.50;7578396;23;20697;-73
2022/08/15 07:47:31;;;;;;;6.90;6.30;;;;;;;25.19;57.42;96791.03;7552668;23;20205;-73
2022/08/15 07:50:44;;;;;;;6.47;5.97;;;;;;;25.60;56.06;96786.50;7576082;23;20296;-73
2022/08/15 07:53:56;;;;;;;6.40;5.90;;;;;;;25.92;55.15;96792.28;7575650;23;20333;-73
2022/08/15 07:57:25;;;;;;;6.93;6.23;;;;;;;26.20;53.80;96788.72;7575606;23;20198;-69
2022/08/15 08:01:05;;;;;;;6.70;6.10;;;;;;;26.31;53.91;96787.88;7576806;23;20229;-69
2022/08/15 08:04:29;;;;;;;6.70;6.18;;;;;;;26.66;52.79;96791.16;7556877;23;20209;-70
2022/08/15 08:07:42;;;;;;;6.50;6.00;;;;;;;26.75;52.90;96795.06;7575633;23;20241;-69
2022/08/15 08:11:08;;;;;;;7.50;6.80;;;;;;;26.81;51.07;96798.69;7574740;23;20256;-69
2022/08/15 08:14:23;;;;;;;6.45;5.93;;;;;;;27.13;51.17;96807.06;7577905;23;20704;-69
2022/08/15 08:17:50;;;;;;;6.10;5.60;;;;;;;27.23;50.71;96803.69;7576133;23;20221;-69
2022/08/15 08:21:03;;;;;;;7.72;5.93;;;;;;;27.57;50.22;96805.22;7602151;23;20223;-68
2022/08/15 08:24:47;;;;;;;5.93;5.43;;;;;;;27.71;48.24;96808.38;7587807;23;20200;-68
2022/08/15 08:28:38;;;;;;;6.55;5.95;;;;;;;27.71;47.83;96797.53;7614767;23;20236;-68
2022/08/15 08:32:04;;;;;;;7.20;6.57;;;;;;;28.25;46.98;96817.41;7589939;23;20213;-68
2022/08/15 08:35:54;;;;;;;6.45;5.90;;;;;;;28.44;44.00;96810.56;7613463;23;20231;-67
2022/08/15 08:39:20;;;;;;;6.60;6.00;;;;;;;28.51;43.85;96813.88;7614154;23;20215;-69
2022/08/15 08:42:51;;;;;;;6.28;5.78;;;;;;;28.81;42.83;96809.81;7614476;23;20209;-69
2022/08/15 08:46:05;;;;;;;6.03;5.53;;;;;;;29.28;43.23;96813.38;7613292;23;20216;-69
2022/08/15 08:49:30;;;;;;;6.47;5.90;;;;;;;29.24;41.68;96817.72;7589127;23;20224;-68
2022/08/15 08:53:15;;;;;;;6.60;6.10;;;;;;;29.12;42.70;96810.84;7613999;23;20248;-69
2022/08/15 08:56:25;;;;;;;6.43;5.90;;;;;;;29.35;41.29;96804.97;7610208;23;20444;-70
2022/08/15 09:00:01;;;;;;;6.22;5.72;;;;;;;29.44;41.41;96808.06;7614652;23;20689;-69
2022/08/15 09:03:17;;;;;;;5.90;5.40;;;;;;;29.95;40.40;96804.47;7555130;23;20247;-69
2022/08/15 09:06:28;;;;;;;5.72;5.10;;;;;;;30.19;39.59;96809.44;7615789;23;20185;-70
2022/08/15 09:09:36;;;;;;;6.05;5.45;;;;;;;30.36;39.14;96812.72;7616387;23;20217;-70
2022/08/15 09:16:23;;;;;;;5.55;5.15;;;;;;;30.87;38.15;96801.88;7589727;23;20219;-68
2022/08/15 09:19:39;;;;;;;5.70;5.22;;;;;;;31.11;38.23;96809.25;7614598;23;20419;-67
2022/08/15 09:22:42;;;;;;;6.00;5.40;;;;;;;31.04;36.80;96819.59;7591350;23;20551;-68
2022/08/15 09:26:06;;;;;;;5.93;5.40;;;;;;;30.80;37.13;96803.00;7615854;23;20520;-65
2022/08/15 09:29:27;;;;;;;6.07;5.20;;;;;;;30.64;37.40;96808.72;7614871;23;20555;-69
2022/08/15 09:32:29;;;;;;;5.35;4.85;;;;;;;31.10;36.46;96810.34;7614482;23;20220;-68
2022/08/15 09:35:45;;;;;;;4.90;4.50;;;;;;;30.93;35.95;96811.72;7590349;23;20219;-69
2022/08/15 09:39:09;;;;;;;5.35;4.95;;;;;;;31.13;36.52;96809.81;7615776;23;20213;-68
2022/08/15 09:42:44;;;;;;;4.88;4.45;;;;;;;31.35;36.42;96797.72;7590186;23;20211;-68
2022/08/15 09:46:09;;;;;;;5.05;4.55;;;;;;;31.71;36.00;96806.66;7502567;23;20342;-68
2022/08/15 09:50:00;;;;;;;5.20;4.70;;;;;;;31.88;34.99;96802.47;7504309;23;20675;-68
2022/08/15 09:53:36;;;;;;;5.28;4.78;;;;;;;31.93;34.37;96787.19;7502742;23;20523;-69
2022/08/15 09:57:23;;;;;;;5.80;4.50;;;;;;;32.22;34.91;96793.59;7504537;23;20270;-71
2022/08/15 10:00:30;;;;;;;5.03;4.63;;;;;;;32.55;33.86;96789.25;7502848;23;20663;-71
2022/08/15 10:03:45;;;;;;;5.68;4.45;;;;;;;32.50;33.54;96787.38;7503581;23;20211;-69
2022/08/15 10:07:17;;;;;;;4.65;4.25;;;;;;;32.56;33.37;96775.31;7503257;23;20687;-68
2022/08/15 10:10:34;;;;;;;5.78;4.68;;;;;;;32.70;32.56;96780.97;7438531;23;20381;-69
2022/08/15 10:13:40;;;;;;;5.50;5.03;;;;;;;32.38;33.42;96767.81;7479343;23;20287;-69
2022/08/15 10:16:52;;;;;;;6.85;5.25;;;;;;;31.58;34.98;96758.94;7502938;23;20215;-69
2022/08/15 10:19:56;;;;;;;5.25;4.68;;;;;;;31.86;35.63;96762.91;7503049;23;20656;-68
2022/08/15 10:23:24;;;;;;;5.38;4.88;;;;;;;32.70;34.93;96756.38;7598054;23;20215;-68
2022/08/15 10:26:33;;;;;;;5.50;5.00;;;;;;;33.22;33.33;96768.44;7614854;23;20209;-68
2022/08/15 10:29:39;;;;;;;4.75;4.45;;;;;;;33.74;32.54;96750.34;7615803;23;20213;-68
2022/08/15 10:32:43;;;;;;;4.68;4.28;;;;;;;33.69;31.23;96754.75;7588965;23;20232;-67
2022/08/15 10:36:13;;;;;;;6.10;5.03;;;;;;;32.97;32.15;96753.91;7614663;23;20704;-68
2022/08/15 10:39:53;;;;;;;4.95;4.55;;;;;;;32.92;33.90;96753.16;7614709;23;20544;-68
2022/08/15 10:43:22;;;;;;;4.82;4.43;;;;;;;33.06;32.61;96753.28;7614558;23;20287;-69
2022/08/15 10:46:49;;;;;;;5.20;4.70;;;;;;;33.61;32.29;96747.22;7594144;23;20739;-68
2022/08/15 10:50:12;;;;;;;4.85;4.47;;;;;;;33.92;30.81;96744.91;7588368;23;20231;-69
2022/08/15 10:53:39;;;;;;;4.97;4.60;;;;;;;33.68;32.06;96750.41;7615001;23;20218;-68
2022/08/15 10:56:56;;;;;;;5.35;4.80;;;;;;;33.37;31.81;96749.16;7588745;23;20209;-69
2022/08/15 11:00:08;;;;;;;4.85;4.53;;;;;;;33.31;31.66;96747.59;7614028;23;20201;-68
2022/08/15 11:03:40;;;;;;;5.30;4.90;;;;;;;32.90;32.37;96742.50;7613584;23;20287;-65
2022/08/15 11:07:27;;;;;;;5.10;4.60;;;;;;;33.17;30.74;96739.22;7592843;23;20219;-68
2022/08/15 11:10:32;;;;;;;5.32;4.35;;;;;;;33.24;31.55;96744.38;7596110;23;20604;-68
2022/08/15 11:13:36;;;;;;;4.75;4.35;;;;;;;33.77;30.54;96733.34;7585663;23;20220;-68
2022/08/15 11:16:44;;;;;;;4.30;3.92;;;;;;;34.20;30.56;96726.69;7587946;23;20238;-68
2022/08/15 11:19:51;;;;;;;4.50;4.20;;;;;;;34.33;29.64;96727.91;7615551;23;20221;-68
2022/08/15 11:23:31;;;;;;;5.00;4.63;;;;;;;34.51;28.66;96727.06;7614143;23;20213;-68
2022/08/15 11:26:38;;;;;;;5.07;4.10;;;;;;;34.69;28.17;96736.34;7613289;23;20212;-69
2022/08/15 11:29:42;;;;;;;4.68;4.38;;;;;;;34.72;28.08;96725.59;7614142;23;20216;-68
2022/08/15 11:32:54;;;;;;;4.50;4.18;;;;;;;34.91;28.68;96722.00;7614368;23;20208;-68
2022/08/15 11:36:17;;;;;;;4.57;4.18;;;;;;;35.01;28.64;96730.03;7615783;23;20208;-68
2022/08/15 11:39:20;;;;;;;5.95;3.92;;;;;;;35.49;27.99;96716.75;7613756;23;20192;-68
2022/08/15 11:42:29;;;;;;;4.50;4.20;;;;;;;35.39;28.18;96728.75;7614330;23;20296;-69
2022/08/15 11:45:38;;;;;;;4.40;4.00;;;;;;;35.50;26.40;96715.66;7589158;23;20236;-68
2022/08/15 11:49:06;;;;;;;4.25;3.95;;;;;;;35.14;27.61;96718.25;7617366;23;20235;-70
2022/08/15 11:52:12;;;;;;;3.90;3.60;;;;;;;35.71;27.22;96716.84;7611971;23;20695;-69
2022/08/15 11:55:34;;;;;;;4.07;3.78;;;;;;;35.61;27.36;96703.34;7614621;23;20204;-68
2022/08/15 11:58:44;;;;;;;4.05;3.75;;;;;;;35.80;27.15;96706.78;7588104;23;20208;-70
2022/08/15 12:02:20;;;;;;;4.20;3.90;;;;;;;36.02;26.98;96700.53;7612400;23;20216;-70
2022/08/15 12:05:36;;;;;;;5.03;4.57;;;;;;;36.41;26.25;96702.63;7591122;23;20208;-70
2022/08/15 12:09:27;;;;;;;4.30;3.90;;;;;;;36.62;25.42;96702.94;7612732;23;20660;-69
2022/08/15 12:12:49;;;;;;;4.38;4.00;;;;;;;36.68;25.56;96696.19;7443753;23;20582;-70
2022/08/15 12:15:51;;;;;;;4.60;4.20;;;;;;;36.79;25.41;96705.00;7467802;23;20264;-69
2022/08/15 12:18:56;;;;;;;3.75;3.45;;;;;;;37.04;25.33;96700.72;7444811;23;20755;-70
2022/08/15 12:22:04;;;;;;;3.70;3.40;;;;;;;37.03;24.70;96697.19;7466807;23;20298;-70
2022/08/15 12:25:26;;;;;;;3.78;3.47;;;;;;;37.17;24.73;96697.09;7466219;23;20211;-70
2022/08/15 12:28:48;;;;;;;3.80;3.50;;;;;;;36.65;24.79;96687.72;7466546;23;20212;-70
2022/08/15 12:31:58;;;;;;;4.20;3.80;;;;;;;36.44;25.26;96696.50;7443265;23;20315;-70
2022/08/15 12:35:01;;;;;;;4.13;3.83;;;;;;;36.88;24.67;96692.09;7466687;23;20683;-69
2022/08/15 12:38:04;;;;;;;3.83;3.53;;;;;;;36.90;24.64;96698.09;7467274;23;20211;-70
2022/08/15 12:41:08;;;;;;;3.35;3.15;;;;;;;37.05;24.07;96694.09;7469262;23;20210;-70
2022/08/15 12:44:36;;;;;;;3.72;3.42;;;;;;;37.44;23.72;96691.34;7469007;23;20341;-70
2022/08/15 12:47:40;;;;;;;3.42;2.78;;;;;;;37.38;23.89;96687.16;7493295;23;20271;-70
2022/08/15 12:51:04;;;;;;;3.13;2.92;;;;;;;37.65;23.50;96675.06;7616527;23;20208;-69
2022/08/15 12:54:07;;;;;;;3.47;3.20;;;;;;;37.55;23.41;96667.09;7590356;23;20201;-70
2022/08/15 12:57:29;;;;;;;3.83;3.03;;;;;;;36.85;23.96;96670.72;7623922;23;20215;-69
2022/08/15 13:00:54;;;;;;;3.42;3.13;;;;;;;37.04;24.00;96675.97;7615615;23;20219;-69
2022/08/15 13:04:06;;;;;;;3.13;2.80;;;;;;;36.97;23.94;96681.94;7591621;23;20268;-70
2022/08/15 13:07:29;;;;;;;2.63;2.45;;;;;;;37.61;23.79;96672.16;7615063;23;20209;-70
2022/08/15 13:10:32;;;;;;;3.25;2.95;;;;;;;37.90;22.68;96665.22;7617313;23;20267;-70
2022/08/15 13:13:54;;;;;;;3.55;3.25;;;;;;;37.27;22.70;96661.84;7615475;23;20313;-70
2022/08/15 13:16:59;;;;;;;2.80;2.60;;;;;;;37.68;23.22;96667.00;7616241;23;20666;-70
2022/08/15 13:23:58;;;;;;;3.30;3.10;;;;;;;38.23;21.65;96663.63;7617466;23;20212;-70
2022/08/15 13:27:18;;;;;;;3.42;2.60;;;;;;;38.44;21.02;96647.19;7588489;23;20188;-70
2022/08/15 13:30:21;;;;;;;3.13;2.88;;;;;;;38.70;20.37;96652.69;7615901;23;20536;-69
2022/08/15 13:33:37;;;;;;;2.65;2.47;;;;;;;39.06;20.86;96649.50;7616094;23;20213;-69
2022/08/15 13:36:44;;;;;;;2.67;2.47;;;;;;;38.96;20.55;96649.84;7591384;23;20743;-70
2022/08/15 13:39:56;;;;;;;2.90;2.70;;;;;;;38.91;20.67;96644.50;7615715;23;20685;-70
2022/08/15 13:43:02;;;;;;;17.75;15.70;;;;;;;38.56;20.65;96646.56;7589809;23;20212;-69
2022/08/15 13:46:15;;;;;;;5.35;4.90;;;;;;;37.79;21.83;96641.88;7615400;23;20217;-70
2022/08/15 13:49:34;;;;;;;4.60;4.20;;;;;;;37.12;22.62;96631.19;7589715;23;20221;-72
2022/08/15 13:52:37;;;;;;;4.13;3.28;;;;;;;37.05;22.88;96650.09;7615582;23;20212;-69
2022/08/15 13:55:52;;;;;;;3.92;3.60;;;;;;;37.30;22.77;96639.19;7615854;23;20726;-69
2022/08/15 13:58:57;;;;;;;6.50;4.50;;;;;;;37.20;23.34;96642.25;7616365;23;20220;-69
2022/08/15 14:02:02;;;;;;;3.85;3.30;;;;;;;38.54;21.43;96641.38;7623835;23;20693;-69
2022/08/15 14:05:25;;;;;;;6.53;5.15;;;;;;;39.46;20.50;96645.25;7617180;23;20217;-69
2022/08/15 14:08:35;;;;;;;4.25;3.78;;;;;;;37.39;23.28;96658.47;7616733;23;20695;-68
2022/08/15 14:11:58;;;;;;;4.45;4.05;;;;;;;36.11;25.45;96651.94;7589567;23;20209;-69
2022/08/15 14:15:01;;;;;;;3.60;3.30;;;;;;;35.45;27.09;96658.91;7615806;23;20200;-68
2022/08/15 14:18:07;;;;;;;4.57;4.20;;;;;;;34.85;27.00;96649.97;7616743;23;20723;-68
2022/08/15 14:21:30;;;;;;;10.13;9.13;;;;;;;35.21;27.77;96661.06;7614804;23;20252;-68
2022/08/15 14:24:34;;;;;;;5.88;5.30;;;;;;;35.98;26.09;96650.06;7590400;23;20216;-69
2022/08/15 14:27:56;;;;;;;4.75;4.35;;;;;;;34.76;27.28;96644.38;7614601;23;20594;-68
2022/08/15 14:31:00;;;;;;;5.20;4.78;;;;;;;33.60;29.59;96646.25;7614870;23;20227;-68
2022/08/15 14:34:23;;;;;;;4.60;4.22;;;;;;;33.24;29.90;96648.66;7613617;23;20209;-68
2022/08/15 14:37:48;;;;;;;3.97;3.67;;;;;;;33.08;31.07;96645.25;7617389;23;20213;-68
2022/08/15 14:41:11;;;;;;;5.65;5.15;;;;;;;33.97;29.73;96643.50;7615244;23;20209;-68
2022/08/15 14:44:15;;;;;;;6.03;5.53;;;;;;;33.73;29.54;96648.25;7615035;23;20728;-68
2022/08/15 14:47:37;;;;;;;5.10;4.60;;;;;;;33.27;29.74;96645.31;7616177;23;20212;-68
2022/08/15 14:50:39;;;;;;;5.20;4.70;;;;;;;33.09;30.13;96646.06;7614120;23;20492;-69
2022/08/15 14:54:04;;;;;;;5.05;4.55;;;;;;;32.61;31.50;96646.03;7615145;23;20233;-68
2022/08/15 14:57:26;;;;;;;4.88;4.47;;;;;;;32.40;31.41;96644.59;7614915;23;20211;-68
2022/08/15 15:00:38;;;;;;;4.80;4.50;;;;;;;32.18;32.15;96648.59;7613757;23;20213;-68
2022/08/15 15:03:43;;;;;;;4.85;4.45;;;;;;;32.06;32.35;96641.84;7613275;23;20283;-68
2022/08/15 15:06:47;;;;;;;5.25;4.85;;;;;;;31.96;32.85;96645.47;7589536;23;20656;-69
2022/08/15 15:09:50;;;;;;;6.90;6.25;;;;;;;31.87;33.62;96647.19;7614033;23;20212;-68
2022/08/15 15:12:59;;;;;;;6.00;5.50;;;;;;;31.69;34.17;96654.13;7614714;23;20213;-69
2022/08/15 15:16:01;;;;;;;6.25;5.65;;;;;;;31.57;34.22;96661.81;7616271;23;20208;-68
2022/08/15 15:19:29;;;;;;;11.90;9.88;;;;;;;31.39;34.64;96648.81;7618798;23;20217;-68
2022/08/15 15:22:41;;;;;;;8.65;7.75;;;;;;;31.37;35.88;96649.09;7620040;23;20208;-68
2022/08/15 15:25:48;;;;;;;8.23;7.43;;;;;;;31.29;36.22;96646.97;7620262;23;20220;-68
2022/08/15 15:28:51;;;;;;;6.18;5.65;;;;;;;31.14;37.01;96647.06;7621618;23;20213;-68
2022/08/15 15:31:54;;;;;;;6.95;6.25;;;;;;;31.01;37.67;96639.44;7621140;23;20216;-70
2022/08/15 15:34:58;;;;;;;8.23;5.78;;;;;;;30.91;37.85;96636.75;7621290;23;20215;-69
2022/08/15 15:38:00;;;;;;;5.82;5.32;;;;;;;30.71;37.81;96632.19;7595438;23;20219;-69
2022/08/15 15:41:23;;;;;;;5.07;4.65;;;;;;;30.56;38.63;96633.00;7619960;23;20213;-69